sensor_id;sensor_type;location;lat;lon;timestamp;P1;durP1;ratioP1;P2;durP2;ratioP2
27408;SDS011;20413;50.782;7.152;2022-11-04T00:01:57;1.88;;;0.40;;
27408;SDS011;20413;50.782;7.152;2022-11-04T00:04:25;0.93;;;0.60;;
27408;SDS011;20413;50.782;7.152;2022-11-04T00:06:51;1.93;;;1.00;;
27408;SDS011;20413;50.782;7.152;2022-11-04T00:09:18;1.50;;;0.50;;
27408;SDS011;20413;50.782;7.152;2022-11-04T00:11:45;0.40;;;0.40;;
27408;SDS011;20413;50.782;7.152;2022-11-04T00:14:30;1.35;;;0.60;;
27408;SDS011;20413;50.782;7.152;2022-11-04T00:16:56;1.05;;;0.55;;
27408;SDS011;20413;50.782;7.152;2022-11-04T00:19:41;1.00;;;0.45;;
27408;SDS011;20413;50.782;7.152;2022-11-04T00:22:25;0.93;;;0.73;;
27408;SDS011;20413;50.782;7.152;2022-11-04T00:25:11;1.17;;;0.60;;
27408;SDS011;20413;50.782;7.152;2022-11-04T00:28:07;0.95;;;0.47;;
27408;SDS011;20413;50.782;7.152;2022-11-04T00:30:54;4.25;;;0.63;;
27408;SDS011;20413;50.782;7.152;2022-11-04T00:33:20;0.85;;;0.52;;
27408;SDS011;20413;50.782;7.152;2022-11-04T00:35:50;0.65;;;0.65;;
27408;SDS011;20413;50.782;7.152;2022-11-04T00:38:16;1.40;;;0.55;;
27408;SDS011;20413;50.782;7.152;2022-11-04T00:40:42;1.50;;;0.50;;
27408;SDS011;20413;50.782;7.152;2022-11-04T00:43:09;1.00;;;0.50;;
27408;SDS011;20413;50.782;7.152;2022-11-04T00:45:35;0.55;;;0.52;;
27408;SDS011;20413;50.782;7.152;2022-11-04T00:48:01;1.20;;;0.50;;
27408;SDS011;20413;50.782;7.152;2022-11-04T00:50:27;2.30;;;0.70;;
27408;SDS011;20413;50.782;7.152;2022-11-04T00:52:59;1.98;;;0.60;;
27408;SDS011;20413;50.782;7.152;2022-11-04T00:55:25;0.43;;;0.35;;
27408;SDS011;20413;50.782;7.152;2022-11-04T00:57:52;1.50;;;0.68;;
27408;SDS011;20413;50.782;7.152;2022-11-04T01:00:18;1.85;;;0.70;;
27408;SDS011;20413;50.782;7.152;2022-11-04T01:02:44;0.95;;;0.63;;
27408;SDS011;20413;50.782;7.152;2022-11-04T01:05:10;0.63;;;0.60;;
27408;SDS011;20413;50.782;7.152;2022-11-04T01:07:36;1.10;;;0.70;;
27408;SDS011;20413;50.782;7.152;2022-11-04T01:10:03;1.00;;;0.88;;
27408;SDS011;20413;50.782;7.152;2022-11-04T01:12:29;2.78;;;0.63;;
27408;SDS011;20413;50.782;7.152;2022-11-04T01:14:55;0.88;;;0.50;;
27408;SDS011;20413;50.782;7.152;2022-11-04T01:17:21;0.60;;;0.50;;
27408;SDS011;20413;50.782;7.152;2022-11-04T01:19:47;0.50;;;0.50;;
27408;SDS011;20413;50.782;7.152;2022-11-04T01:22:13;0.60;;;0.50;;
27408;SDS011;20413;50.782;7.152;2022-11-04T01:24:39;0.65;;;0.65;;
27408;SDS011;20413;50.782;7.152;2022-11-04T01:27:05;0.98;;;0.50;;
27408;SDS011;20413;50.782;7.152;2022-11-04T01:29:31;1.30;;;0.80;;
27408;SDS011;20413;50.782;7.152;2022-11-04T01:31:58;0.65;;;0.50;;
27408;SDS011;20413;50.782;7.152;2022-11-04T01:34:24;1.10;;;0.63;;
27408;SDS011;20413;50.782;7.152;2022-11-04T01:36:50;1.33;;;0.80;;
27408;SDS011;20413;50.782;7.152;2022-11-04T01:39:16;3.10;;;0.90;;
27408;SDS011;20413;50.782;7.152;2022-11-04T01:41:42;2.03;;;0.70;;
27408;SDS011;20413;50.782;7.152;2022-11-04T01:46:53;0.65;;;0.60;;
27408;SDS011;20413;50.782;7.152;2022-11-04T01:49:23;1.42;;;0.80;;
27408;SDS011;20413;50.782;7.152;2022-11-04T01:51:52;1.05;;;0.77;;
27408;SDS011;20413;50.782;7.152;2022-11-04T01:54:19;0.70;;;0.70;;
27408;SDS011;20413;50.782;7.152;2022-11-04T01:56:45;0.60;;;0.60;;
27408;SDS011;20413;50.782;7.152;2022-11-04T01:59:14;0.90;;;0.80;;
27408;SDS011;20413;50.782;7.152;2022-11-04T02:01:43;1.00;;;0.70;;
27408;SDS011;20413;50.782;7.152;2022-11-04T02:04:09;0.70;;;0.70;;
27408;SDS011;20413;50.782;7.152;2022-11-04T02:07:01;1.00;;;0.77;;
27408;SDS011;20413;50.782;7.152;2022-11-04T02:09:29;1.77;;;0.80;;
27408;SDS011;20413;50.782;7.152;2022-11-04T02:11:56;3.17;;;0.80;;
27408;SDS011;20413;50.782;7.152;2022-11-04T02:14:40;2.08;;;0.80;;
27408;SDS011;20413;50.782;7.152;2022-11-04T02:19:44;5.00;;;0.90;;
27408;SDS011;20413;50.782;7.152;2022-11-04T02:22:28;1.42;;;0.63;;
27408;SDS011;20413;50.782;7.152;2022-11-04T02:27:45;1.00;;;0.80;;
27408;SDS011;20413;50.782;7.152;2022-11-04T02:30:14;1.15;;;0.60;;
27408;SDS011;20413;50.782;7.152;2022-11-04T02:35:09;1.63;;;0.65;;
27408;SDS011;20413;50.782;7.152;2022-11-04T02:40:17;0.75;;;0.65;;
27408;SDS011;20413;50.782;7.152;2022-11-04T02:42:57;2.42;;;0.70;;
27408;SDS011;20413;50.782;7.152;2022-11-04T02:45:27;0.70;;;0.43;;
27408;SDS011;20413;50.782;7.152;2022-11-04T02:47:57;4.05;;;0.55;;
27408;SDS011;20413;50.782;7.152;2022-11-04T02:50:28;0.70;;;0.70;;
27408;SDS011;20413;50.782;7.152;2022-11-04T02:52:58;4.13;;;0.98;;
27408;SDS011;20413;50.782;7.152;2022-11-04T02:55:32;2.65;;;0.60;;
27408;SDS011;20413;50.782;7.152;2022-11-04T02:58:00;4.22;;;1.00;;
27408;SDS011;20413;50.782;7.152;2022-11-04T03:00:28;7.97;;;1.00;;
27408;SDS011;20413;50.782;7.152;2022-11-04T03:02:59;4.90;;;0.82;;
27408;SDS011;20413;50.782;7.152;2022-11-04T03:05:30;1.08;;;0.60;;
27408;SDS011;20413;50.782;7.152;2022-11-04T03:07:59;3.47;;;0.75;;
27408;SDS011;20413;50.782;7.152;2022-11-04T03:10:29;3.08;;;0.82;;
27408;SDS011;20413;50.782;7.152;2022-11-04T03:13:00;3.17;;;0.90;;
27408;SDS011;20413;50.782;7.152;2022-11-04T03:15:28;1.92;;;0.65;;
27408;SDS011;20413;50.782;7.152;2022-11-04T03:20:31;5.10;;;0.70;;
27408;SDS011;20413;50.782;7.152;2022-11-04T03:22:58;5.50;;;0.70;;
27408;SDS011;20413;50.782;7.152;2022-11-04T03:25:25;4.38;;;0.80;;
27408;SDS011;20413;50.782;7.152;2022-11-04T03:30:19;6.25;;;1.08;;
27408;SDS011;20413;50.782;7.152;2022-11-04T03:35:14;2.40;;;0.60;;
27408;SDS011;20413;50.782;7.152;2022-11-04T03:37:41;5.63;;;1.00;;
27408;SDS011;20413;50.782;7.152;2022-11-04T03:40:07;3.88;;;0.90;;
27408;SDS011;20413;50.782;7.152;2022-11-04T03:42:35;6.10;;;0.80;;
27408;SDS011;20413;50.782;7.152;2022-11-04T03:45:03;4.55;;;0.88;;
27408;SDS011;20413;50.782;7.152;2022-11-04T03:47:29;6.15;;;1.20;;
27408;SDS011;20413;50.782;7.152;2022-11-04T03:50:04;3.10;;;0.70;;
27408;SDS011;20413;50.782;7.152;2022-11-04T03:52:32;4.95;;;0.80;;
27408;SDS011;20413;50.782;7.152;2022-11-04T03:54:58;2.42;;;0.52;;
27408;SDS011;20413;50.782;7.152;2022-11-04T04:02:20;2.55;;;0.80;;
27408;SDS011;20413;50.782;7.152;2022-11-04T04:07:25;3.33;;;0.82;;
27408;SDS011;20413;50.782;7.152;2022-11-04T04:09:58;3.92;;;0.98;;
27408;SDS011;20413;50.782;7.152;2022-11-04T04:14:52;4.45;;;0.80;;
27408;SDS011;20413;50.782;7.152;2022-11-04T04:17:54;3.50;;;0.80;;
27408;SDS011;20413;50.782;7.152;2022-11-04T04:20:12;7.85;;;0.85;;
27408;SDS011;20413;50.782;7.152;2022-11-04T04:22:40;3.70;;;0.85;;
27408;SDS011;20413;50.782;7.152;2022-11-04T04:25:08;4.72;;;0.90;;
27408;SDS011;20413;50.782;7.152;2022-11-04T04:27:54;5.03;;;0.90;;
27408;SDS011;20413;50.782;7.152;2022-11-04T04:30:22;3.33;;;0.60;;
27408;SDS011;20413;50.782;7.152;2022-11-04T04:32:49;3.80;;;0.70;;
27408;SDS011;20413;50.782;7.152;2022-11-04T04:35:16;3.05;;;0.70;;
27408;SDS011;20413;50.782;7.152;2022-11-04T04:38:04;4.03;;;0.90;;
27408;SDS011;20413;50.782;7.152;2022-11-04T04:40:52;2.60;;;0.73;;
27408;SDS011;20413;50.782;7.152;2022-11-04T04:43:37;3.35;;;1.33;;
27408;SDS011;20413;50.782;7.152;2022-11-04T04:46:22;9.13;;;1.00;;
27408;SDS011;20413;50.782;7.152;2022-11-04T04:48:48;2.63;;;0.75;;
27408;SDS011;20413;50.782;7.152;2022-11-04T04:51:14;2.60;;;0.90;;
27408;SDS011;20413;50.782;7.152;2022-11-04T04:53:41;2.05;;;1.00;;
27408;SDS011;20413;50.782;7.152;2022-11-04T04:56:07;4.45;;;0.90;;
27408;SDS011;20413;50.782;7.152;2022-11-04T04:58:33;4.85;;;0.82;;
27408;SDS011;20413;50.782;7.152;2022-11-04T05:00:59;1.52;;;0.88;;
27408;SDS011;20413;50.782;7.152;2022-11-04T05:03:25;3.13;;;0.70;;
27408;SDS011;20413;50.782;7.152;2022-11-04T05:05:51;3.05;;;0.60;;
27408;SDS011;20413;50.782;7.152;2022-11-04T05:08:17;2.92;;;0.73;;
27408;SDS011;20413;50.782;7.152;2022-11-04T05:10:43;2.72;;;0.73;;
27408;SDS011;20413;50.782;7.152;2022-11-04T05:13:09;2.17;;;0.90;;
27408;SDS011;20413;50.782;7.152;2022-11-04T05:15:54;4.90;;;0.90;;
27408;SDS011;20413;50.782;7.152;2022-11-04T05:18:20;2.70;;;0.93;;
27408;SDS011;20413;50.782;7.152;2022-11-04T05:20:46;3.67;;;0.90;;
27408;SDS011;20413;50.782;7.152;2022-11-04T05:23:12;4.15;;;1.00;;
27408;SDS011;20413;50.782;7.152;2022-11-04T05:25:39;4.80;;;1.33;;
27408;SDS011;20413;50.782;7.152;2022-11-04T05:28:05;1.80;;;0.90;;
27408;SDS011;20413;50.782;7.152;2022-11-04T05:30:31;3.42;;;0.98;;
27408;SDS011;20413;50.782;7.152;2022-11-04T05:32:58;4.57;;;1.25;;
27408;SDS011;20413;50.782;7.152;2022-11-04T05:35:24;1.92;;;1.02;;
27408;SDS011;20413;50.782;7.152;2022-11-04T05:37:50;3.67;;;1.10;;
27408;SDS011;20413;50.782;7.152;2022-11-04T05:40:16;3.65;;;1.02;;
27408;SDS011;20413;50.782;7.152;2022-11-04T05:42:42;5.40;;;0.90;;
27408;SDS011;20413;50.782;7.152;2022-11-04T05:45:08;4.20;;;0.98;;
27408;SDS011;20413;50.782;7.152;2022-11-04T05:47:34;4.30;;;1.10;;
27408;SDS011;20413;50.782;7.152;2022-11-04T05:50:00;7.85;;;1.27;;
27408;SDS011;20413;50.782;7.152;2022-11-04T05:52:26;11.45;;;1.40;;
27408;SDS011;20413;50.782;7.152;2022-11-04T05:54:52;3.00;;;1.00;;
27408;SDS011;20413;50.782;7.152;2022-11-04T05:57:18;6.25;;;1.20;;
27408;SDS011;20413;50.782;7.152;2022-11-04T05:59:44;5.35;;;1.70;;
27408;SDS011;20413;50.782;7.152;2022-11-04T06:02:10;10.07;;;1.45;;
27408;SDS011;20413;50.782;7.152;2022-11-04T06:04:36;8.13;;;1.38;;
27408;SDS011;20413;50.782;7.152;2022-11-04T06:07:02;5.88;;;1.60;;
27408;SDS011;20413;50.782;7.152;2022-11-04T06:09:28;7.85;;;1.95;;
27408;SDS011;20413;50.782;7.152;2022-11-04T06:12:11;5.78;;;1.90;;
27408;SDS011;20413;50.782;7.152;2022-11-04T06:14:41;4.78;;;2.25;;
27408;SDS011;20413;50.782;7.152;2022-11-04T06:17:15;6.85;;;2.17;;
27408;SDS011;20413;50.782;7.152;2022-11-04T06:19:41;9.88;;;2.10;;
27408;SDS011;20413;50.782;7.152;2022-11-04T06:22:10;9.32;;;1.98;;
27408;SDS011;20413;50.782;7.152;2022-11-04T06:24:37;5.75;;;1.52;;
27408;SDS011;20413;50.782;7.152;2022-11-04T06:27:03;4.38;;;1.80;;
27408;SDS011;20413;50.782;7.152;2022-11-04T06:29:29;6.28;;;1.70;;
27408;SDS011;20413;50.782;7.152;2022-11-04T06:31:55;9.73;;;1.50;;
27408;SDS011;20413;50.782;7.152;2022-11-04T06:34:21;3.95;;;1.23;;
27408;SDS011;20413;50.782;7.152;2022-11-04T06:36:47;5.40;;;1.52;;
27408;SDS011;20413;50.782;7.152;2022-11-04T06:39:13;6.65;;;1.52;;
27408;SDS011;20413;50.782;7.152;2022-11-04T06:41:39;9.68;;;2.00;;
27408;SDS011;20413;50.782;7.152;2022-11-04T06:44:05;6.70;;;1.58;;
27408;SDS011;20413;50.782;7.152;2022-11-04T06:46:33;4.95;;;1.95;;
27408;SDS011;20413;50.782;7.152;2022-11-04T06:48:59;10.23;;;2.70;;
27408;SDS011;20413;50.782;7.152;2022-11-04T06:51:25;6.57;;;2.47;;
27408;SDS011;20413;50.782;7.152;2022-11-04T06:53:51;15.55;;;2.45;;
27408;SDS011;20413;50.782;7.152;2022-11-04T06:56:18;8.55;;;2.40;;
27408;SDS011;20413;50.782;7.152;2022-11-04T06:58:47;7.47;;;1.98;;
27408;SDS011;20413;50.782;7.152;2022-11-04T07:01:14;8.20;;;2.58;;
27408;SDS011;20413;50.782;7.152;2022-11-04T07:03:40;6.18;;;2.20;;
27408;SDS011;20413;50.782;7.152;2022-11-04T07:06:06;6.15;;;2.35;;
27408;SDS011;20413;50.782;7.152;2022-11-04T07:08:32;9.68;;;2.75;;
27408;SDS011;20413;50.782;7.152;2022-11-04T07:10:58;11.32;;;2.33;;
27408;SDS011;20413;50.782;7.152;2022-11-04T07:13:24;10.95;;;3.65;;
27408;SDS011;20413;50.782;7.152;2022-11-04T07:15:51;11.85;;;3.22;;
27408;SDS011;20413;50.782;7.152;2022-11-04T07:18:17;11.38;;;3.85;;
27408;SDS011;20413;50.782;7.152;2022-11-04T07:20:43;11.93;;;3.88;;
27408;SDS011;20413;50.782;7.152;2022-11-04T07:23:09;7.93;;;2.60;;
27408;SDS011;20413;50.782;7.152;2022-11-04T07:25:35;5.10;;;2.25;;
27408;SDS011;20413;50.782;7.152;2022-11-04T07:28:01;8.75;;;2.42;;
27408;SDS011;20413;50.782;7.152;2022-11-04T07:30:27;4.75;;;1.73;;
27408;SDS011;20413;50.782;7.152;2022-11-04T07:32:53;6.53;;;2.15;;
27408;SDS011;20413;50.782;7.152;2022-11-04T07:35:19;4.75;;;2.03;;
27408;SDS011;20413;50.782;7.152;2022-11-04T07:37:45;2.55;;;1.50;;
27408;SDS011;20413;50.782;7.152;2022-11-04T07:40:11;5.25;;;2.13;;
27408;SDS011;20413;50.782;7.152;2022-11-04T07:42:37;9.05;;;1.90;;
27408;SDS011;20413;50.782;7.152;2022-11-04T07:45:03;6.13;;;1.55;;
27408;SDS011;20413;50.782;7.152;2022-11-04T07:47:30;3.55;;;1.70;;
27408;SDS011;20413;50.782;7.152;2022-11-04T07:49:56;6.03;;;1.80;;
27408;SDS011;20413;50.782;7.152;2022-11-04T07:52:22;4.18;;;1.77;;
27408;SDS011;20413;50.782;7.152;2022-11-04T07:54:48;6.97;;;2.75;;
27408;SDS011;20413;50.782;7.152;2022-11-04T07:57:14;8.07;;;2.05;;
27408;SDS011;20413;50.782;7.152;2022-11-04T07:59:40;4.07;;;1.90;;
27408;SDS011;20413;50.782;7.152;2022-11-04T08:02:06;3.75;;;1.95;;
27408;SDS011;20413;50.782;7.152;2022-11-04T08:04:33;5.20;;;1.88;;
27408;SDS011;20413;50.782;7.152;2022-11-04T08:06:59;6.50;;;2.10;;
27408;SDS011;20413;50.782;7.152;2022-11-04T08:09:26;6.07;;;2.03;;
27408;SDS011;20413;50.782;7.152;2022-11-04T08:11:52;5.65;;;2.15;;
27408;SDS011;20413;50.782;7.152;2022-11-04T08:14:18;9.23;;;1.98;;
27408;SDS011;20413;50.782;7.152;2022-11-04T08:16:44;8.00;;;2.17;;
27408;SDS011;20413;50.782;7.152;2022-11-04T08:19:10;5.15;;;2.00;;
27408;SDS011;20413;50.782;7.152;2022-11-04T08:21:36;13.30;;;2.22;;
27408;SDS011;20413;50.782;7.152;2022-11-04T08:24:02;3.38;;;1.80;;
27408;SDS011;20413;50.782;7.152;2022-11-04T08:26:29;3.78;;;1.38;;
27408;SDS011;20413;50.782;7.152;2022-11-04T08:28:55;4.30;;;1.90;;
27408;SDS011;20413;50.782;7.152;2022-11-04T08:31:22;5.35;;;1.45;;
27408;SDS011;20413;50.782;7.152;2022-11-04T08:33:49;4.30;;;1.77;;
27408;SDS011;20413;50.782;7.152;2022-11-04T08:36:16;6.65;;;2.10;;
27408;SDS011;20413;50.782;7.152;2022-11-04T08:38:43;5.97;;;1.45;;
27408;SDS011;20413;50.782;7.152;2022-11-04T08:41:09;4.32;;;1.50;;
27408;SDS011;20413;50.782;7.152;2022-11-04T08:43:36;5.40;;;1.50;;
27408;SDS011;20413;50.782;7.152;2022-11-04T08:46:03;5.65;;;1.50;;
27408;SDS011;20413;50.782;7.152;2022-11-04T08:48:29;3.70;;;1.80;;
27408;SDS011;20413;50.782;7.152;2022-11-04T08:50:56;4.70;;;1.60;;
27408;SDS011;20413;50.782;7.152;2022-11-04T08:53:22;4.85;;;2.00;;
27408;SDS011;20413;50.782;7.152;2022-11-04T08:55:48;5.47;;;1.50;;
27408;SDS011;20413;50.782;7.152;2022-11-04T08:58:15;4.30;;;1.70;;
27408;SDS011;20413;50.782;7.152;2022-11-04T09:00:41;6.57;;;1.90;;
27408;SDS011;20413;50.782;7.152;2022-11-04T09:03:07;2.75;;;1.60;;
27408;SDS011;20413;50.782;7.152;2022-11-04T09:05:35;5.82;;;1.88;;
27408;SDS011;20413;50.782;7.152;2022-11-04T09:08:07;8.13;;;2.42;;
27408;SDS011;20413;50.782;7.152;2022-11-04T09:10:33;7.88;;;2.30;;
27408;SDS011;20413;50.782;7.152;2022-11-04T09:13:00;5.10;;;2.50;;
27408;SDS011;20413;50.782;7.152;2022-11-04T09:15:26;4.05;;;2.17;;
27408;SDS011;20413;50.782;7.152;2022-11-04T09:17:52;3.90;;;2.00;;
27408;SDS011;20413;50.782;7.152;2022-11-04T09:20:18;6.00;;;2.22;;
27408;SDS011;20413;50.782;7.152;2022-11-04T09:22:44;5.80;;;1.80;;
27408;SDS011;20413;50.782;7.152;2022-11-04T09:25:10;2.67;;;2.00;;
27408;SDS011;20413;50.782;7.152;2022-11-04T09:27:36;4.97;;;1.83;;
27408;SDS011;20413;50.782;7.152;2022-11-04T09:30:02;4.07;;;1.60;;
27408;SDS011;20413;50.782;7.152;2022-11-04T09:32:28;4.22;;;1.75;;
27408;SDS011;20413;50.782;7.152;2022-11-04T09:34:54;8.80;;;1.60;;
27408;SDS011;20413;50.782;7.152;2022-11-04T09:37:20;4.50;;;1.50;;
27408;SDS011;20413;50.782;7.152;2022-11-04T09:39:46;5.28;;;1.40;;
27408;SDS011;20413;50.782;7.152;2022-11-04T09:44:42;6.57;;;2.10;;
27408;SDS011;20413;50.782;7.152;2022-11-04T09:47:09;4.13;;;1.35;;
27408;SDS011;20413;50.782;7.152;2022-11-04T09:49:36;4.50;;;1.25;;
27408;SDS011;20413;50.782;7.152;2022-11-04T09:52:06;6.05;;;2.08;;
27408;SDS011;20413;50.782;7.152;2022-11-04T09:57:18;5.05;;;1.02;;
27408;SDS011;20413;50.782;7.152;2022-11-04T09:59:44;3.83;;;1.17;;
27408;SDS011;20413;50.782;7.152;2022-11-04T10:02:18;6.18;;;1.35;;
27408;SDS011;20413;50.782;7.152;2022-11-04T10:07:43;5.32;;;1.20;;
27408;SDS011;20413;50.782;7.152;2022-11-04T10:20:58;2.90;;;0.75;;
27408;SDS011;20413;50.782;7.152;2022-11-04T10:23:27;2.80;;;0.88;;
27408;SDS011;20413;50.782;7.152;2022-11-04T10:26:18;2.22;;;0.60;;
27408;SDS011;20413;50.782;7.152;2022-11-04T10:28:46;5.20;;;1.15;;
27408;SDS011;20413;50.782;7.152;2022-11-04T10:31:14;4.95;;;1.00;;
27408;SDS011;20413;50.782;7.152;2022-11-04T10:33:46;3.08;;;0.93;;
27408;SDS011;20413;50.782;7.152;2022-11-04T10:36:12;4.25;;;0.73;;
27408;SDS011;20413;50.782;7.152;2022-11-04T10:38:43;4.03;;;1.42;;
27408;SDS011;20413;50.782;7.152;2022-11-04T10:41:14;4.25;;;0.77;;
27408;SDS011;20413;50.782;7.152;2022-11-04T10:43:43;3.50;;;1.05;;
27408;SDS011;20413;50.782;7.152;2022-11-04T10:48:53;4.03;;;0.85;;
27408;SDS011;20413;50.782;7.152;2022-11-04T10:51:19;2.90;;;0.80;;
27408;SDS011;20413;50.782;7.152;2022-11-04T10:53:52;4.43;;;1.23;;
27408;SDS011;20413;50.782;7.152;2022-11-04T10:56:22;3.67;;;0.90;;
27408;SDS011;20413;50.782;7.152;2022-11-04T10:58:50;7.15;;;0.88;;
27408;SDS011;20413;50.782;7.152;2022-11-04T11:01:31;3.33;;;1.17;;
27408;SDS011;20413;50.782;7.152;2022-11-04T11:03:58;3.67;;;0.80;;
27408;SDS011;20413;50.782;7.152;2022-11-04T11:06:26;3.47;;;0.85;;
27408;SDS011;20413;50.782;7.152;2022-11-04T11:08:53;6.57;;;0.80;;
27408;SDS011;20413;50.782;7.152;2022-11-04T11:14:19;5.22;;;1.67;;
27408;SDS011;20413;50.782;7.152;2022-11-04T11:16:45;2.58;;;0.95;;
27408;SDS011;20413;50.782;7.152;2022-11-04T11:21:42;3.88;;;0.98;;
27408;SDS011;20413;50.782;7.152;2022-11-04T11:24:27;2.58;;;1.00;;
27408;SDS011;20413;50.782;7.152;2022-11-04T11:27:02;3.83;;;1.02;;
27408;SDS011;20413;50.782;7.152;2022-11-04T11:29:36;2.42;;;0.75;;
27408;SDS011;20413;50.782;7.152;2022-11-04T11:32:20;7.78;;;0.95;;
27408;SDS011;20413;50.782;7.152;2022-11-04T11:34:48;2.67;;;0.88;;
27408;SDS011;20413;50.782;7.152;2022-11-04T11:37:23;1.48;;;0.88;;
27408;SDS011;20413;50.782;7.152;2022-11-04T11:39:49;5.47;;;0.90;;
27408;SDS011;20413;50.782;7.152;2022-11-04T11:42:15;6.03;;;1.55;;
27408;SDS011;20413;50.782;7.152;2022-11-04T11:44:48;3.00;;;0.98;;
27408;SDS011;20413;50.782;7.152;2022-11-04T11:49:41;5.50;;;0.98;;
27408;SDS011;20413;50.782;7.152;2022-11-04T11:54:53;6.72;;;0.60;;
27408;SDS011;20413;50.782;7.152;2022-11-04T11:59:53;3.53;;;0.82;;
27408;SDS011;20413;50.782;7.152;2022-11-04T12:07:42;1.15;;;0.60;;
27408;SDS011;20413;50.782;7.152;2022-11-04T12:12:52;2.95;;;0.65;;
27408;SDS011;20413;50.782;7.152;2022-11-04T12:15:33;2.80;;;0.80;;
27408;SDS011;20413;50.782;7.152;2022-11-04T12:28:17;3.90;;;1.13;;
27408;SDS011;20413;50.782;7.152;2022-11-04T12:33:20;4.07;;;0.82;;
27408;SDS011;20413;50.782;7.152;2022-11-04T12:36:09;4.88;;;0.82;;
27408;SDS011;20413;50.782;7.152;2022-11-04T12:44:03;2.15;;;0.68;;
27408;SDS011;20413;50.782;7.152;2022-11-04T12:54:39;2.67;;;0.50;;
27408;SDS011;20413;50.782;7.152;2022-11-04T13:02:15;5.68;;;0.95;;
27408;SDS011;20413;50.782;7.152;2022-11-04T13:05:04;4.47;;;0.65;;
27408;SDS011;20413;50.782;7.152;2022-11-04T13:10:20;2.40;;;0.50;;
27408;SDS011;20413;50.782;7.152;2022-11-04T13:12:44;3.40;;;0.50;;
27408;SDS011;20413;50.782;7.152;2022-11-04T13:15:19;2.10;;;0.50;;
27408;SDS011;20413;50.782;7.152;2022-11-04T13:17:47;1.05;;;0.50;;
27408;SDS011;20413;50.782;7.152;2022-11-04T13:22:42;4.90;;;0.82;;
27408;SDS011;20413;50.782;7.152;2022-11-04T13:25:18;2.22;;;0.80;;
27408;SDS011;20413;50.782;7.152;2022-11-04T13:27:45;3.10;;;0.73;;
27408;SDS011;20413;50.782;7.152;2022-11-04T13:33:11;2.30;;;0.55;;
27408;SDS011;20413;50.782;7.152;2022-11-04T13:38:19;2.35;;;0.68;;
27408;SDS011;20413;50.782;7.152;2022-11-04T13:43:21;3.17;;;0.70;;
27408;SDS011;20413;50.782;7.152;2022-11-04T13:46:02;4.07;;;0.93;;
27408;SDS011;20413;50.782;7.152;2022-11-04T13:48:29;2.97;;;0.80;;
27408;SDS011;20413;50.782;7.152;2022-11-04T13:51:06;3.38;;;0.77;;
27408;SDS011;20413;50.782;7.152;2022-11-04T13:53:54;4.68;;;1.17;;
27408;SDS011;20413;50.782;7.152;2022-11-04T13:56:30;3.80;;;1.70;;
27408;SDS011;20413;50.782;7.152;2022-11-04T13:59:04;6.18;;;1.70;;
27408;SDS011;20413;50.782;7.152;2022-11-04T14:01:32;4.18;;;1.45;;
27408;SDS011;20413;50.782;7.152;2022-11-04T14:04:18;3.80;;;1.60;;
27408;SDS011;20413;50.782;7.152;2022-11-04T14:06:59;2.72;;;1.92;;
27408;SDS011;20413;50.782;7.152;2022-11-04T14:25:27;5.38;;;2.53;;
27408;SDS011;20413;50.782;7.152;2022-11-04T14:28:36;10.35;;;2.30;;
27408;SDS011;20413;50.782;7.152;2022-11-04T14:30:50;7.05;;;2.20;;
27408;SDS011;20413;50.782;7.152;2022-11-04T14:33:21;4.13;;;1.77;;
27408;SDS011;20413;50.782;7.152;2022-11-04T14:35:49;5.63;;;1.98;;
27408;SDS011;20413;50.782;7.152;2022-11-04T14:38:31;3.35;;;2.00;;
27408;SDS011;20413;50.782;7.152;2022-11-04T14:43:40;2.42;;;1.00;;
27408;SDS011;20413;50.782;7.152;2022-11-04T14:46:07;2.83;;;1.10;;
27408;SDS011;20413;50.782;7.152;2022-11-04T14:48:34;4.57;;;1.27;;
27408;SDS011;20413;50.782;7.152;2022-11-04T14:51:00;5.22;;;1.30;;
27408;SDS011;20413;50.782;7.152;2022-11-04T14:53:32;5.00;;;1.45;;
27408;SDS011;20413;50.782;7.152;2022-11-04T14:56:06;3.78;;;1.30;;
27408;SDS011;20413;50.782;7.152;2022-11-04T14:58:36;7.50;;;1.88;;
27408;SDS011;20413;50.782;7.152;2022-11-04T15:01:02;6.10;;;1.60;;
27408;SDS011;20413;50.782;7.152;2022-11-04T15:03:36;6.55;;;1.38;;
27408;SDS011;20413;50.782;7.152;2022-11-04T15:06:03;2.90;;;0.95;;
27408;SDS011;20413;50.782;7.152;2022-11-04T15:13:47;2.83;;;1.30;;
27408;SDS011;20413;50.782;7.152;2022-11-04T15:18:40;3.55;;;1.30;;
27408;SDS011;20413;50.782;7.152;2022-11-04T15:21:07;3.50;;;1.13;;
27408;SDS011;20413;50.782;7.152;2022-11-04T15:23:44;4.88;;;1.30;;
27408;SDS011;20413;50.782;7.152;2022-11-04T15:26:30;3.20;;;1.50;;
27408;SDS011;20413;50.782;7.152;2022-11-04T15:28:58;4.30;;;1.60;;
27408;SDS011;20413;50.782;7.152;2022-11-04T15:31:25;4.97;;;1.48;;
27408;SDS011;20413;50.782;7.152;2022-11-04T15:33:56;7.27;;;1.20;;
27408;SDS011;20413;50.782;7.152;2022-11-04T15:38:52;3.08;;;1.23;;
27408;SDS011;20413;50.782;7.152;2022-11-04T15:41:20;5.05;;;1.88;;
27408;SDS011;20413;50.782;7.152;2022-11-04T15:44:11;5.18;;;1.60;;
27408;SDS011;20413;50.782;7.152;2022-11-04T15:46:38;5.97;;;1.70;;
27408;SDS011;20413;50.782;7.152;2022-11-04T15:49:05;2.00;;;1.20;;
27408;SDS011;20413;50.782;7.152;2022-11-04T15:51:40;4.00;;;1.70;;
27408;SDS011;20413;50.782;7.152;2022-11-04T15:54:14;7.13;;;2.05;;
27408;SDS011;20413;50.782;7.152;2022-11-04T15:56:44;6.22;;;1.60;;
27408;SDS011;20413;50.782;7.152;2022-11-04T15:59:15;6.18;;;1.65;;
27408;SDS011;20413;50.782;7.152;2022-11-04T16:01:43;7.10;;;2.13;;
27408;SDS011;20413;50.782;7.152;2022-11-04T16:04:09;2.72;;;1.70;;
27408;SDS011;20413;50.782;7.152;2022-11-04T16:06:36;2.97;;;1.30;;
27408;SDS011;20413;50.782;7.152;2022-11-04T16:09:49;5.85;;;1.92;;
27408;SDS011;20413;50.782;7.152;2022-11-04T16:12:02;5.07;;;1.80;;
27408;SDS011;20413;50.782;7.152;2022-11-04T16:14:29;3.10;;;1.67;;
27408;SDS011;20413;50.782;7.152;2022-11-04T16:16:55;3.47;;;1.73;;
27408;SDS011;20413;50.782;7.152;2022-11-04T16:19:23;5.35;;;2.28;;
27408;SDS011;20413;50.782;7.152;2022-11-04T16:24:19;8.52;;;3.22;;
27408;SDS011;20413;50.782;7.152;2022-11-04T16:26:47;4.50;;;2.33;;
27408;SDS011;20413;50.782;7.152;2022-11-04T16:29:24;7.88;;;2.25;;
27408;SDS011;20413;50.782;7.152;2022-11-04T16:36:57;3.35;;;2.35;;
27408;SDS011;20413;50.782;7.152;2022-11-04T16:39:23;6.03;;;2.45;;
27408;SDS011;20413;50.782;7.152;2022-11-04T16:41:49;8.32;;;3.10;;
27408;SDS011;20413;50.782;7.152;2022-11-04T16:44:17;5.93;;;3.15;;
27408;SDS011;20413;50.782;7.152;2022-11-04T16:46:44;8.65;;;3.67;;
27408;SDS011;20413;50.782;7.152;2022-11-04T16:49:12;10.95;;;3.78;;
27408;SDS011;20413;50.782;7.152;2022-11-04T16:51:39;6.55;;;3.08;;
27408;SDS011;20413;50.782;7.152;2022-11-04T16:54:05;9.35;;;3.50;;
27408;SDS011;20413;50.782;7.152;2022-11-04T16:56:31;5.97;;;3.15;;
27408;SDS011;20413;50.782;7.152;2022-11-04T16:58:57;2.90;;;2.20;;
27408;SDS011;20413;50.782;7.152;2022-11-04T17:01:24;2.80;;;2.25;;
27408;SDS011;20413;50.782;7.152;2022-11-04T17:03:50;4.35;;;2.25;;
27408;SDS011;20413;50.782;7.152;2022-11-04T17:06:16;4.05;;;2.88;;
27408;SDS011;20413;50.782;7.152;2022-11-04T17:08:42;4.47;;;2.67;;
27408;SDS011;20413;50.782;7.152;2022-11-04T17:11:09;5.22;;;2.83;;
27408;SDS011;20413;50.782;7.152;2022-11-04T17:13:35;4.80;;;2.90;;
27408;SDS011;20413;50.782;7.152;2022-11-04T17:16:01;6.22;;;3.30;;
27408;SDS011;20413;50.782;7.152;2022-11-04T17:18:31;7.13;;;3.53;;
27408;SDS011;20413;50.782;7.152;2022-11-04T17:20:57;4.25;;;3.10;;
27408;SDS011;20413;50.782;7.152;2022-11-04T17:23:25;4.70;;;3.33;;
27408;SDS011;20413;50.782;7.152;2022-11-04T17:25:51;11.57;;;7.63;;
27408;SDS011;20413;50.782;7.152;2022-11-04T17:28:17;7.68;;;5.32;;
27408;SDS011;20413;50.782;7.152;2022-11-04T17:30:43;10.82;;;6.55;;
27408;SDS011;20413;50.782;7.152;2022-11-04T17:33:13;11.02;;;5.88;;
27408;SDS011;20413;50.782;7.152;2022-11-04T17:35:40;12.23;;;6.60;;